sensor_id;sensor_type;location;lat;lon;timestamp;P1;durP1;ratioP1;P2;durP2;ratioP2
84891;SDS011;75154;42.072;21.394;2024-01-30T00:01:22;8.90;;;4.47;;
84891;SDS011;75154;42.072;21.394;2024-01-30T00:03:48;7.93;;;4.32;;
84891;SDS011;75154;42.072;21.394;2024-01-30T00:06:18;9.68;;;4.72;;
84891;SDS011;75154;42.072;21.394;2024-01-30T00:11:14;7.90;;;5.10;;
84891;SDS011;75154;42.072;21.394;2024-01-30T00:13:40;7.30;;;4.97;;
84891;SDS011;75154;42.072;21.394;2024-01-30T00:16:06;9.95;;;5.05;;
84891;SDS011;75154;42.072;21.394;2024-01-30T00:18:33;11.40;;;6.15;;
84891;SDS011;75154;42.072;21.394;2024-01-30T00:20:59;7.97;;;4.97;;
84891;SDS011;75154;42.072;21.394;2024-01-30T00:23:25;6.93;;;4.30;;
84891;SDS011;75154;42.072;21.394;2024-01-30T00:25:51;6.40;;;3.85;;
84891;SDS011;75154;42.072;21.394;2024-01-30T00:28:17;8.57;;;4.25;;
84891;SDS011;75154;42.072;21.394;2024-01-30T00:30:44;9.98;;;5.68;;
84891;SDS011;75154;42.072;21.394;2024-01-30T00:33:10;8.50;;;4.38;;
84891;SDS011;75154;42.072;21.394;2024-01-30T00:35:36;8.43;;;5.07;;
84891;SDS011;75154;42.072;21.394;2024-01-30T00:38:02;8.63;;;5.38;;
84891;SDS011;75154;42.072;21.394;2024-01-30T00:40:28;9.73;;;6.03;;
84891;SDS011;75154;42.072;21.394;2024-01-30T00:42:54;7.75;;;4.82;;
84891;SDS011;75154;42.072;21.394;2024-01-30T00:45:20;6.72;;;4.07;;
84891;SDS011;75154;42.072;21.394;2024-01-30T00:47:46;7.40;;;4.45;;
84891;SDS011;75154;42.072;21.394;2024-01-30T00:50:13;5.90;;;3.42;;
84891;SDS011;75154;42.072;21.394;2024-01-30T00:52:39;6.55;;;4.05;;
84891;SDS011;75154;42.072;21.394;2024-01-30T00:55:06;6.30;;;3.67;;
84891;SDS011;75154;42.072;21.394;2024-01-30T00:57:33;11.00;;;6.38;;
84891;SDS011;75154;42.072;21.394;2024-01-30T00:59:59;10.80;;;7.10;;
84891;SDS011;75154;42.072;21.394;2024-01-30T01:02:25;11.35;;;6.70;;
84891;SDS011;75154;42.072;21.394;2024-01-30T01:04:51;7.15;;;5.07;;
84891;SDS011;75154;42.072;21.394;2024-01-30T01:07:17;7.57;;;5.45;;
84891;SDS011;75154;42.072;21.394;2024-01-30T01:09:43;10.35;;;5.88;;
84891;SDS011;75154;42.072;21.394;2024-01-30T01:12:09;7.15;;;4.63;;
84891;SDS011;75154;42.072;21.394;2024-01-30T01:14:35;6.28;;;3.65;;
84891;SDS011;75154;42.072;21.394;2024-01-30T01:17:01;7.30;;;4.50;;
84891;SDS011;75154;42.072;21.394;2024-01-30T01:19:27;6.95;;;3.67;;
84891;SDS011;75154;42.072;21.394;2024-01-30T01:21:53;5.70;;;3.60;;
84891;SDS011;75154;42.072;21.394;2024-01-30T01:24:19;8.30;;;3.90;;
84891;SDS011;75154;42.072;21.394;2024-01-30T01:26:45;8.68;;;5.30;;
84891;SDS011;75154;42.072;21.394;2024-01-30T01:29:11;11.73;;;6.25;;
84891;SDS011;75154;42.072;21.394;2024-01-30T01:31:37;13.65;;;8.05;;
84891;SDS011;75154;42.072;21.394;2024-01-30T01:34:11;8.98;;;5.80;;
84891;SDS011;75154;42.072;21.394;2024-01-30T01:36:37;8.30;;;5.93;;
84891;SDS011;75154;42.072;21.394;2024-01-30T01:39:03;8.32;;;5.00;;
84891;SDS011;75154;42.072;21.394;2024-01-30T01:41:32;10.77;;;5.05;;
84891;SDS011;75154;42.072;21.394;2024-01-30T01:43:59;11.10;;;5.32;;
84891;SDS011;75154;42.072;21.394;2024-01-30T01:46:29;8.20;;;4.50;;
84891;SDS011;75154;42.072;21.394;2024-01-30T01:48:56;10.60;;;5.82;;
84891;SDS011;75154;42.072;21.394;2024-01-30T01:51:23;10.02;;;5.13;;
84891;SDS011;75154;42.072;21.394;2024-01-30T01:53:50;8.73;;;5.13;;
84891;SDS011;75154;42.072;21.394;2024-01-30T01:56:16;10.20;;;4.97;;
84891;SDS011;75154;42.072;21.394;2024-01-30T01:58:42;8.45;;;5.03;;
84891;SDS011;75154;42.072;21.394;2024-01-30T02:01:10;8.95;;;4.70;;
84891;SDS011;75154;42.072;21.394;2024-01-30T02:03:37;7.55;;;5.40;;
84891;SDS011;75154;42.072;21.394;2024-01-30T02:06:03;10.45;;;4.38;;
84891;SDS011;75154;42.072;21.394;2024-01-30T02:08:30;6.93;;;4.07;;
84891;SDS011;75154;42.072;21.394;2024-01-30T02:10:56;5.32;;;3.67;;
84891;SDS011;75154;42.072;21.394;2024-01-30T02:13:22;6.70;;;3.88;;
84891;SDS011;75154;42.072;21.394;2024-01-30T02:15:49;5.35;;;3.38;;
84891;SDS011;75154;42.072;21.394;2024-01-30T02:18:15;6.60;;;4.28;;
84891;SDS011;75154;42.072;21.394;2024-01-30T02:20:41;6.28;;;3.80;;
84891;SDS011;75154;42.072;21.394;2024-01-30T02:23:07;4.72;;;3.00;;
84891;SDS011;75154;42.072;21.394;2024-01-30T02:25:39;4.88;;;2.85;;
84891;SDS011;75154;42.072;21.394;2024-01-30T02:28:09;5.13;;;3.00;;
84891;SDS011;75154;42.072;21.394;2024-01-30T02:30:36;5.75;;;3.60;;
84891;SDS011;75154;42.072;21.394;2024-01-30T02:33:02;8.25;;;4.85;;
84891;SDS011;75154;42.072;21.394;2024-01-30T02:35:28;6.25;;;3.88;;
84891;SDS011;75154;42.072;21.394;2024-01-30T02:37:54;6.15;;;3.80;;
84891;SDS011;75154;42.072;21.394;2024-01-30T02:40:20;5.22;;;3.10;;
84891;SDS011;75154;42.072;21.394;2024-01-30T02:42:46;5.78;;;3.92;;
84891;SDS011;75154;42.072;21.394;2024-01-30T02:45:12;6.78;;;3.67;;
84891;SDS011;75154;42.072;21.394;2024-01-30T02:47:39;13.27;;;7.93;;
84891;SDS011;75154;42.072;21.394;2024-01-30T02:50:05;12.60;;;5.78;;
84891;SDS011;75154;42.072;21.394;2024-01-30T02:52:31;11.27;;;5.80;;
84891;SDS011;75154;42.072;21.394;2024-01-30T02:54:57;8.18;;;4.32;;
84891;SDS011;75154;42.072;21.394;2024-01-30T02:57:23;5.43;;;2.95;;
84891;SDS011;75154;42.072;21.394;2024-01-30T02:59:50;5.18;;;3.03;;
84891;SDS011;75154;42.072;21.394;2024-01-30T03:02:16;4.28;;;2.60;;
84891;SDS011;75154;42.072;21.394;2024-01-30T03:04:42;7.07;;;4.53;;
84891;SDS011;75154;42.072;21.394;2024-01-30T03:07:08;5.75;;;3.22;;
84891;SDS011;75154;42.072;21.394;2024-01-30T03:09:34;9.15;;;5.20;;
84891;SDS011;75154;42.072;21.394;2024-01-30T03:12:00;5.90;;;3.33;;
84891;SDS011;75154;42.072;21.394;2024-01-30T03:14:26;9.60;;;3.95;;
84891;SDS011;75154;42.072;21.394;2024-01-30T03:16:52;8.35;;;4.68;;
84891;SDS011;75154;42.072;21.394;2024-01-30T03:19:18;7.93;;;4.10;;
84891;SDS011;75154;42.072;21.394;2024-01-30T03:21:44;7.38;;;4.47;;
84891;SDS011;75154;42.072;21.394;2024-01-30T03:24:10;9.48;;;5.22;;
84891;SDS011;75154;42.072;21.394;2024-01-30T03:26:37;9.30;;;5.30;;
84891;SDS011;75154;42.072;21.394;2024-01-30T03:29:03;7.95;;;4.60;;
84891;SDS011;75154;42.072;21.394;2024-01-30T03:31:29;9.05;;;3.97;;
84891;SDS011;75154;42.072;21.394;2024-01-30T03:33:55;8.20;;;4.05;;
84891;SDS011;75154;42.072;21.394;2024-01-30T03:36:21;6.90;;;4.10;;
84891;SDS011;75154;42.072;21.394;2024-01-30T03:38:47;8.38;;;4.10;;
84891;SDS011;75154;42.072;21.394;2024-01-30T03:41:13;7.95;;;4.50;;
84891;SDS011;75154;42.072;21.394;2024-01-30T03:43:39;8.98;;;4.85;;
84891;SDS011;75154;42.072;21.394;2024-01-30T03:46:06;6.40;;;4.45;;
84891;SDS011;75154;42.072;21.394;2024-01-30T03:48:32;8.95;;;4.88;;
84891;SDS011;75154;42.072;21.394;2024-01-30T03:50:58;7.65;;;3.88;;
84891;SDS011;75154;42.072;21.394;2024-01-30T03:53:24;8.10;;;4.55;;
84891;SDS011;75154;42.072;21.394;2024-01-30T03:55:50;8.20;;;5.10;;
84891;SDS011;75154;42.072;21.394;2024-01-30T03:58:16;8.90;;;5.90;;
84891;SDS011;75154;42.072;21.394;2024-01-30T04:00:42;10.70;;;5.38;;
84891;SDS011;75154;42.072;21.394;2024-01-30T04:03:09;8.00;;;4.38;;
84891;SDS011;75154;42.072;21.394;2024-01-30T04:05:35;7.90;;;4.80;;
84891;SDS011;75154;42.072;21.394;2024-01-30T04:08:01;10.63;;;4.65;;
84891;SDS011;75154;42.072;21.394;2024-01-30T04:10:27;10.75;;;5.07;;
84891;SDS011;75154;42.072;21.394;2024-01-30T04:12:53;9.93;;;5.40;;
84891;SDS011;75154;42.072;21.394;2024-01-30T04:15:20;7.97;;;5.35;;
84891;SDS011;75154;42.072;21.394;2024-01-30T04:20:50;9.23;;;4.43;;
84891;SDS011;75154;42.072;21.394;2024-01-30T04:23:16;7.35;;;4.63;;
84891;SDS011;75154;42.072;21.394;2024-01-30T04:25:42;10.32;;;5.10;;
84891;SDS011;75154;42.072;21.394;2024-01-30T04:28:08;13.57;;;5.50;;
84891;SDS011;75154;42.072;21.394;2024-01-30T04:30:37;8.18;;;4.65;;
84891;SDS011;75154;42.072;21.394;2024-01-30T04:33:03;8.82;;;5.10;;
84891;SDS011;75154;42.072;21.394;2024-01-30T04:35:29;9.13;;;5.38;;
84891;SDS011;75154;42.072;21.394;2024-01-30T04:37:55;6.78;;;4.60;;
84891;SDS011;75154;42.072;21.394;2024-01-30T04:40:21;7.93;;;4.75;;
84891;SDS011;75154;42.072;21.394;2024-01-30T04:42:48;10.48;;;5.65;;
84891;SDS011;75154;42.072;21.394;2024-01-30T04:45:14;8.20;;;4.45;;
84891;SDS011;75154;42.072;21.394;2024-01-30T04:47:40;11.73;;;4.65;;
84891;SDS011;75154;42.072;21.394;2024-01-30T04:50:06;11.48;;;5.47;;
84891;SDS011;75154;42.072;21.394;2024-01-30T04:52:33;9.60;;;4.60;;
84891;SDS011;75154;42.072;21.394;2024-01-30T04:54:59;10.02;;;4.80;;
84891;SDS011;75154;42.072;21.394;2024-01-30T04:57:25;7.18;;;4.40;;
84891;SDS011;75154;42.072;21.394;2024-01-30T04:59:52;10.70;;;4.20;;
84891;SDS011;75154;42.072;21.394;2024-01-30T05:02:18;10.25;;;4.90;;
84891;SDS011;75154;42.072;21.394;2024-01-30T05:04:44;6.72;;;5.05;;
84891;SDS011;75154;42.072;21.394;2024-01-30T05:07:10;9.82;;;4.18;;
84891;SDS011;75154;42.072;21.394;2024-01-30T05:09:36;9.65;;;5.68;;
84891;SDS011;75154;42.072;21.394;2024-01-30T05:12:02;10.48;;;5.22;;
84891;SDS011;75154;42.072;21.394;2024-01-30T05:14:28;15.43;;;6.30;;
84891;SDS011;75154;42.072;21.394;2024-01-30T05:16:54;12.50;;;6.28;;
84891;SDS011;75154;42.072;21.394;2024-01-30T05:19:20;13.25;;;6.88;;
84891;SDS011;75154;42.072;21.394;2024-01-30T05:21:48;11.07;;;6.22;;
84891;SDS011;75154;42.072;21.394;2024-01-30T05:24:14;9.32;;;5.90;;
84891;SDS011;75154;42.072;21.394;2024-01-30T05:26:40;11.63;;;4.90;;
84891;SDS011;75154;42.072;21.394;2024-01-30T05:29:06;10.18;;;5.30;;
84891;SDS011;75154;42.072;21.394;2024-01-30T05:31:33;12.15;;;6.43;;
84891;SDS011;75154;42.072;21.394;2024-01-30T05:33:59;8.95;;;5.32;;
84891;SDS011;75154;42.072;21.394;2024-01-30T05:36:25;15.65;;;5.78;;
84891;SDS011;75154;42.072;21.394;2024-01-30T05:38:52;13.30;;;6.30;;
84891;SDS011;75154;42.072;21.394;2024-01-30T05:41:18;17.23;;;7.78;;
84891;SDS011;75154;42.072;21.394;2024-01-30T05:43:44;15.38;;;7.63;;
84891;SDS011;75154;42.072;21.394;2024-01-30T05:46:10;12.43;;;7.28;;
84891;SDS011;75154;42.072;21.394;2024-01-30T05:48:36;11.95;;;6.53;;
84891;SDS011;75154;42.072;21.394;2024-01-30T05:51:02;11.55;;;6.07;;
84891;SDS011;75154;42.072;21.394;2024-01-30T05:53:29;15.25;;;6.38;;
84891;SDS011;75154;42.072;21.394;2024-01-30T05:55:55;13.68;;;7.25;;
84891;SDS011;75154;42.072;21.394;2024-01-30T05:58:21;17.23;;;8.43;;
84891;SDS011;75154;42.072;21.394;2024-01-30T06:00:47;11.27;;;6.43;;
84891;SDS011;75154;42.072;21.394;2024-01-30T06:03:13;16.52;;;7.47;;
84891;SDS011;75154;42.072;21.394;2024-01-30T06:05:39;21.35;;;9.68;;
84891;SDS011;75154;42.072;21.394;2024-01-30T06:08:05;18.58;;;10.52;;
84891;SDS011;75154;42.072;21.394;2024-01-30T06:10:31;18.75;;;8.98;;
84891;SDS011;75154;42.072;21.394;2024-01-30T06:12:57;20.60;;;9.65;;
84891;SDS011;75154;42.072;21.394;2024-01-30T06:15:24;22.92;;;11.63;;
84891;SDS011;75154;42.072;21.394;2024-01-30T06:17:51;19.65;;;9.85;;
84891;SDS011;75154;42.072;21.394;2024-01-30T06:20:17;23.80;;;11.65;;
84891;SDS011;75154;42.072;21.394;2024-01-30T06:22:43;16.63;;;8.20;;
84891;SDS011;75154;42.072;21.394;2024-01-30T06:25:09;19.25;;;9.55;;
84891;SDS011;75154;42.072;21.394;2024-01-30T06:27:37;14.35;;;7.75;;
84891;SDS011;75154;42.072;21.394;2024-01-30T06:30:03;16.70;;;8.18;;
84891;SDS011;75154;42.072;21.394;2024-01-30T06:32:30;16.75;;;7.75;;
84891;SDS011;75154;42.072;21.394;2024-01-30T06:34:59;17.15;;;8.52;;
84891;SDS011;75154;42.072;21.394;2024-01-30T06:37:25;17.50;;;9.40;;
84891;SDS011;75154;42.072;21.394;2024-01-30T06:39:51;19.80;;;10.02;;
84891;SDS011;75154;42.072;21.394;2024-01-30T06:42:17;18.60;;;9.80;;
84891;SDS011;75154;42.072;21.394;2024-01-30T06:44:43;18.65;;;9.13;;
84891;SDS011;75154;42.072;21.394;2024-01-30T06:47:10;19.48;;;9.18;;
84891;SDS011;75154;42.072;21.394;2024-01-30T06:49:36;18.92;;;8.95;;
84891;SDS011;75154;42.072;21.394;2024-01-30T06:52:06;16.58;;;9.73;;
84891;SDS011;75154;42.072;21.394;2024-01-30T06:54:32;17.13;;;7.50;;
84891;SDS011;75154;42.072;21.394;2024-01-30T06:56:58;17.98;;;9.38;;
84891;SDS011;75154;42.072;21.394;2024-01-30T06:59:25;23.23;;;10.73;;
84891;SDS011;75154;42.072;21.394;2024-01-30T07:01:51;18.52;;;9.50;;
84891;SDS011;75154;42.072;21.394;2024-01-30T07:04:17;20.35;;;10.35;;
84891;SDS011;75154;42.072;21.394;2024-01-30T07:06:43;30.30;;;14.95;;
84891;SDS011;75154;42.072;21.394;2024-01-30T07:09:09;28.13;;;15.02;;
84891;SDS011;75154;42.072;21.394;2024-01-30T07:11:35;29.35;;;13.90;;
84891;SDS011;75154;42.072;21.394;2024-01-30T07:14:01;27.20;;;13.88;;
84891;SDS011;75154;42.072;21.394;2024-01-30T07:16:29;20.40;;;11.35;;
84891;SDS011;75154;42.072;21.394;2024-01-30T07:18:56;21.98;;;10.77;;
84891;SDS011;75154;42.072;21.394;2024-01-30T07:21:22;17.00;;;9.82;;
84891;SDS011;75154;42.072;21.394;2024-01-30T07:23:53;9.70;;;6.22;;
84891;SDS011;75154;42.072;21.394;2024-01-30T07:26:19;12.52;;;7.63;;
84891;SDS011;75154;42.072;21.394;2024-01-30T07:28:45;22.90;;;12.25;;
84891;SDS011;75154;42.072;21.394;2024-01-30T07:31:11;16.00;;;8.57;;
84891;SDS011;75154;42.072;21.394;2024-01-30T07:33:37;15.55;;;8.73;;
84891;SDS011;75154;42.072;21.394;2024-01-30T07:36:03;15.20;;;7.70;;
84891;SDS011;75154;42.072;21.394;2024-01-30T07:38:32;12.95;;;6.68;;
84891;SDS011;75154;42.072;21.394;2024-01-30T07:40:59;12.32;;;6.95;;
84891;SDS011;75154;42.072;21.394;2024-01-30T07:43:25;14.52;;;7.60;;
84891;SDS011;75154;42.072;21.394;2024-01-30T07:45:51;13.82;;;8.90;;
84891;SDS011;75154;42.072;21.394;2024-01-30T07:48:18;14.85;;;7.25;;
84891;SDS011;75154;42.072;21.394;2024-01-30T07:50:44;12.02;;;7.32;;
84891;SDS011;75154;42.072;21.394;2024-01-30T07:53:10;12.57;;;6.68;;
84891;SDS011;75154;42.072;21.394;2024-01-30T07:55:36;13.02;;;7.22;;
84891;SDS011;75154;42.072;21.394;2024-01-30T07:58:02;14.48;;;7.00;;
84891;SDS011;75154;42.072;21.394;2024-01-30T08:00:29;11.60;;;6.72;;
84891;SDS011;75154;42.072;21.394;2024-01-30T08:02:55;12.70;;;7.05;;
84891;SDS011;75154;42.072;21.394;2024-01-30T08:05:22;12.80;;;8.10;;
84891;SDS011;75154;42.072;21.394;2024-01-30T08:07:48;14.48;;;8.98;;
84891;SDS011;75154;42.072;21.394;2024-01-30T08:10:15;10.18;;;6.22;;
84891;SDS011;75154;42.072;21.394;2024-01-30T08:12:43;12.80;;;7.22;;
84891;SDS011;75154;42.072;21.394;2024-01-30T08:15:09;10.90;;;6.95;;
84891;SDS011;75154;42.072;21.394;2024-01-30T08:17:35;15.93;;;8.10;;
84891;SDS011;75154;42.072;21.394;2024-01-30T08:20:01;13.00;;;8.35;;
84891;SDS011;75154;42.072;21.394;2024-01-30T08:22:29;13.13;;;8.63;;
84891;SDS011;75154;42.072;21.394;2024-01-30T08:24:55;11.60;;;7.03;;
84891;SDS011;75154;42.072;21.394;2024-01-30T08:27:21;10.35;;;7.43;;
84891;SDS011;75154;42.072;21.394;2024-01-30T08:29:47;14.82;;;8.38;;
84891;SDS011;75154;42.072;21.394;2024-01-30T08:32:15;9.23;;;6.10;;
84891;SDS011;75154;42.072;21.394;2024-01-30T08:34:41;10.88;;;8.27;;
84891;SDS011;75154;42.072;21.394;2024-01-30T08:37:07;13.25;;;9.25;;
84891;SDS011;75154;42.072;21.394;2024-01-30T08:39:33;14.68;;;8.35;;
84891;SDS011;75154;42.072;21.394;2024-01-30T08:41:59;14.07;;;9.35;;
84891;SDS011;75154;42.072;21.394;2024-01-30T08:44:25;13.27;;;8.23;;
84891;SDS011;75154;42.072;21.394;2024-01-30T08:46:52;12.45;;;7.60;;
84891;SDS011;75154;42.072;21.394;2024-01-30T08:49:19;13.77;;;7.88;;
84891;SDS011;75154;42.072;21.394;2024-01-30T08:51:45;12.30;;;8.48;;
84891;SDS011;75154;42.072;21.394;2024-01-30T08:54:12;12.75;;;7.40;;
84891;SDS011;75154;42.072;21.394;2024-01-30T08:56:38;12.48;;;8.18;;
84891;SDS011;75154;42.072;21.394;2024-01-30T08:59:06;11.35;;;6.57;;
84891;SDS011;75154;42.072;21.394;2024-01-30T09:01:32;12.00;;;7.57;;
84891;SDS011;75154;42.072;21.394;2024-01-30T09:03:58;12.10;;;7.70;;
84891;SDS011;75154;42.072;21.394;2024-01-30T09:06:24;12.68;;;8.23;;
84891;SDS011;75154;42.072;21.394;2024-01-30T09:08:53;11.43;;;6.53;;
84891;SDS011;75154;42.072;21.394;2024-01-30T09:11:19;11.48;;;7.05;;
84891;SDS011;75154;42.072;21.394;2024-01-30T09:13:45;10.48;;;7.40;;
84891;SDS011;75154;42.072;21.394;2024-01-30T09:16:11;12.88;;;6.95;;
84891;SDS011;75154;42.072;21.394;2024-01-30T09:18:37;10.52;;;6.55;;
84891;SDS011;75154;42.072;21.394;2024-01-30T09:21:03;13.23;;;6.15;;
84891;SDS011;75154;42.072;21.394;2024-01-30T09:23:29;11.77;;;5.88;;
84891;SDS011;75154;42.072;21.394;2024-01-30T09:25:55;10.38;;;6.00;;
84891;SDS011;75154;42.072;21.394;2024-01-30T09:28:22;12.02;;;8.48;;
84891;SDS011;75154;42.072;21.394;2024-01-30T09:30:48;11.63;;;6.88;;
84891;SDS011;75154;42.072;21.394;2024-01-30T09:33:14;12.98;;;7.10;;
84891;SDS011;75154;42.072;21.394;2024-01-30T09:35:40;9.68;;;6.47;;
84891;SDS011;75154;42.072;21.394;2024-01-30T09:38:06;10.60;;;6.80;;
84891;SDS011;75154;42.072;21.394;2024-01-30T09:40:32;9.57;;;6.80;;
84891;SDS011;75154;42.072;21.394;2024-01-30T09:42:58;8.05;;;5.30;;
84891;SDS011;75154;42.072;21.394;2024-01-30T09:45:25;8.18;;;5.55;;
84891;SDS011;75154;42.072;21.394;2024-01-30T09:47:51;7.80;;;5.28;;
84891;SDS011;75154;42.072;21.394;2024-01-30T09:50:18;10.23;;;6.63;;
84891;SDS011;75154;42.072;21.394;2024-01-30T09:52:44;11.60;;;6.47;;
84891;SDS011;75154;42.072;21.394;2024-01-30T09:55:11;7.95;;;5.07;;
84891;SDS011;75154;42.072;21.394;2024-01-30T09:57:37;9.65;;;5.85;;
84891;SDS011;75154;42.072;21.394;2024-01-30T10:00:03;8.73;;;5.18;;
84891;SDS011;75154;42.072;21.394;2024-01-30T10:02:31;10.07;;;5.82;;
84891;SDS011;75154;42.072;21.394;2024-01-30T10:04:58;7.22;;;5.15;;
84891;SDS011;75154;42.072;21.394;2024-01-30T10:07:25;9.85;;;5.60;;
84891;SDS011;75154;42.072;21.394;2024-01-30T10:09:51;12.00;;;5.25;;
84891;SDS011;75154;42.072;21.394;2024-01-30T10:12:18;7.95;;;5.55;;
84891;SDS011;75154;42.072;21.394;2024-01-30T10:14:44;6.95;;;4.57;;
84891;SDS011;75154;42.072;21.394;2024-01-30T10:17:11;9.18;;;5.05;;
84891;SDS011;75154;42.072;21.394;2024-01-30T10:19:38;7.65;;;5.00;;
84891;SDS011;75154;42.072;21.394;2024-01-30T10:22:04;8.63;;;4.32;;
84891;SDS011;75154;42.072;21.394;2024-01-30T10:24:30;7.28;;;4.65;;
84891;SDS011;75154;42.072;21.394;2024-01-30T10:26:56;7.13;;;4.93;;
84891;SDS011;75154;42.072;21.394;2024-01-30T10:29:23;11.15;;;4.60;;
84891;SDS011;75154;42.072;21.394;2024-01-30T10:31:59;7.57;;;4.90;;
84891;SDS011;75154;42.072;21.394;2024-01-30T10:34:25;7.32;;;4.55;;
84891;SDS011;75154;42.072;21.394;2024-01-30T10:36:55;10.15;;;5.22;;
84891;SDS011;75154;42.072;21.394;2024-01-30T10:39:25;9.60;;;5.30;;
84891;SDS011;75154;42.072;21.394;2024-01-30T10:41:53;14.93;;;5.88;;
84891;SDS011;75154;42.072;21.394;2024-01-30T10:44:22;12.75;;;5.43;;
84891;SDS011;75154;42.072;21.394;2024-01-30T10:46:51;5.97;;;4.50;;
84891;SDS011;75154;42.072;21.394;2024-01-30T10:49:20;7.32;;;4.45;;
84891;SDS011;75154;42.072;21.394;2024-01-30T10:51:47;9.77;;;4.78;;
84891;SDS011;75154;42.072;21.394;2024-01-30T10:54:13;11.07;;;4.28;;
84891;SDS011;75154;42.072;21.394;2024-01-30T10:56:40;10.55;;;4.32;;
84891;SDS011;75154;42.072;21.394;2024-01-30T10:59:06;5.93;;;4.25;;
84891;SDS011;75154;42.072;21.394;2024-01-30T11:01:32;6.40;;;4.47;;
84891;SDS011;75154;42.072;21.394;2024-01-30T11:03:58;7.30;;;4.22;;
84891;SDS011;75154;42.072;21.394;2024-01-30T11:06:25;5.78;;;4.28;;
84891;SDS011;75154;42.072;21.394;2024-01-30T11:09:03;5.80;;;4.07;;
84891;SDS011;75154;42.072;21.394;2024-01-30T11:14:33;5.15;;;3.70;;
84891;SDS011;75154;42.072;21.394;2024-01-30T11:16:59;5.05;;;3.40;;
84891;SDS011;75154;42.072;21.394;2024-01-30T11:19:26;5.57;;;3.42;;
84891;SDS011;75154;42.072;21.394;2024-01-30T11:21:52;5.20;;;3.83;;
84891;SDS011;75154;42.072;21.394;2024-01-30T11:24:20;7.50;;;4.40;;
84891;SDS011;75154;42.072;21.394;2024-01-30T11:26:49;11.35;;;4.43;;
84891;SDS011;75154;42.072;21.394;2024-01-30T11:29:16;12.40;;;3.90;;
84891;SDS011;75154;42.072;21.394;2024-01-30T11:31:55;5.53;;;3.80;;
84891;SDS011;75154;42.072;21.394;2024-01-30T11:34:22;5.80;;;3.67;;
84891;SDS011;75154;42.072;21.394;2024-01-30T11:36:58;5.30;;;3.40;;
84891;SDS011;75154;42.072;21.394;2024-01-30T11:39:25;5.93;;;3.88;;
84891;SDS011;75154;42.072;21.394;2024-01-30T11:41:51;5.72;;;3.90;;
84891;SDS011;75154;42.072;21.394;2024-01-30T11:44:21;8.13;;;4.32;;
84891;SDS011;75154;42.072;21.394;2024-01-30T11:46:52;5.03;;;3.72;;
84891;SDS011;75154;42.072;21.394;2024-01-30T11:49:19;5.78;;;3.75;;
84891;SDS011;75154;42.072;21.394;2024-01-30T11:51:45;7.25;;;4.05;;
84891;SDS011;75154;42.072;21.394;2024-01-30T11:54:13;21.13;;;5.70;;
84891;SDS011;75154;42.072;21.394;2024-01-30T11:56:40;7.72;;;4.38;;
84891;SDS011;75154;42.072;21.394;2024-01-30T11:59:06;6.43;;;3.97;;
84891;SDS011;75154;42.072;21.394;2024-01-30T12:01:32;7.53;;;4.03;;
84891;SDS011;75154;42.072;21.394;2024-01-30T12:03:59;8.70;;;4.00;;
84891;SDS011;75154;42.072;21.394;2024-01-30T12:06:25;7.10;;;4.22;;
84891;SDS011;75154;42.072;21.394;2024-01-30T12:09:03;16.38;;;4.72;;
84891;SDS011;75154;42.072;21.394;2024-01-30T12:11:29;10.57;;;4.53;;
84891;SDS011;75154;42.072;21.394;2024-01-30T12:13:55;7.68;;;4.18;;
84891;SDS011;75154;42.072;21.394;2024-01-30T12:16:22;7.22;;;4.32;;
84891;SDS011;75154;42.072;21.394;2024-01-30T12:18:48;10.60;;;4.35;;
84891;SDS011;75154;42.072;21.394;2024-01-30T12:21:17;10.32;;;4.18;;
84891;SDS011;75154;42.072;21.394;2024-01-30T12:23:44;9.80;;;4.10;;
84891;SDS011;75154;42.072;21.394;2024-01-30T12:26:10;7.07;;;4.18;;
84891;SDS011;75154;42.072;21.394;2024-01-30T12:28:37;5.53;;;3.72;;
84891;SDS011;75154;42.072;21.394;2024-01-30T12:31:13;13.10;;;4.18;;
84891;SDS011;75154;42.072;21.394;2024-01-30T12:33:39;5.13;;;3.88;;
84891;SDS011;75154;42.072;21.394;2024-01-30T12:36:05;5.57;;;3.97;;
84891;SDS011;75154;42.072;21.394;2024-01-30T12:38:31;11.02;;;4.50;;
84891;SDS011;75154;42.072;21.394;2024-01-30T12:40:57;9.18;;;4.82;;
84891;SDS011;75154;42.072;21.394;2024-01-30T12:43:24;9.15;;;4.75;;
84891;SDS011;75154;42.072;21.394;2024-01-30T12:45:52;9.40;;;3.85;;
84891;SDS011;75154;42.072;21.394;2024-01-30T12:48:18;6.13;;;3.90;;
84891;SDS011;75154;42.072;21.394;2024-01-30T12:50:44;12.90;;;4.88;;
84891;SDS011;75154;42.072;21.394;2024-01-30T12:53:10;5.88;;;4.10;;
84891;SDS011;75154;42.072;21.394;2024-01-30T12:55:37;6.68;;;4.28;;
84891;SDS011;75154;42.072;21.394;2024-01-30T12:58:05;11.02;;;5.03;;
84891;SDS011;75154;42.072;21.394;2024-01-30T13:00:31;13.65;;;4.68;;
84891;SDS011;75154;42.072;21.394;2024-01-30T13:02:57;6.40;;;4.85;;
84891;SDS011;75154;42.072;21.394;2024-01-30T13:05:23;11.77;;;5.05;;
84891;SDS011;75154;42.072;21.394;2024-01-30T13:07:50;9.90;;;5.20;;
84891;SDS011;75154;42.072;21.394;2024-01-30T13:10:18;9.88;;;5.20;;
84891;SDS011;75154;42.072;21.394;2024-01-30T13:12:44;8.18;;;4.57;;
84891;SDS011;75154;42.072;21.394;2024-01-30T13:15:10;8.73;;;4.55;;
84891;SDS011;75154;42.072;21.394;2024-01-30T13:17:36;8.43;;;5.07;;
84891;SDS011;75154;42.072;21.394;2024-01-30T13:20:03;9.25;;;5.20;;
84891;SDS011;75154;42.072;21.394;2024-01-30T13:22:29;11.00;;;5.07;;
84891;SDS011;75154;42.072;21.394;2024-01-30T13:24:55;10.82;;;4.80;;
84891;SDS011;75154;42.072;21.394;2024-01-30T13:27:21;6.88;;;4.25;;
84891;SDS011;75154;42.072;21.394;2024-01-30T13:29:47;8.52;;;4.63;;
84891;SDS011;75154;42.072;21.394;2024-01-30T13:32:13;7.10;;;4.72;;
84891;SDS011;75154;42.072;21.394;2024-01-30T13:34:40;7.30;;;4.97;;
84891;SDS011;75154;42.072;21.394;2024-01-30T13:37:06;7.47;;;4.47;;
84891;SDS011;75154;42.072;21.394;2024-01-30T13:39:32;7.45;;;4.65;;
84891;SDS011;75154;42.072;21.394;2024-01-30T13:41:58;9.68;;;4.90;;
84891;SDS011;75154;42.072;21.394;2024-01-30T13:44:24;7.20;;;4.50;;
84891;SDS011;75154;42.072;21.394;2024-01-30T13:46:50;5.72;;;4.15;;
84891;SDS011;75154;42.072;21.394;2024-01-30T13:49:16;6.28;;;4.22;;
84891;SDS011;75154;42.072;21.394;2024-01-30T13:51:42;6.70;;;4.28;;
84891;SDS011;75154;42.072;21.394;2024-01-30T13:54:08;7.75;;;4.32;;
84891;SDS011;75154;42.072;21.394;2024-01-30T13:56:34;6.57;;;3.85;;
84891;SDS011;75154;42.072;21.394;2024-01-30T13:59:01;7.90;;;4.82;;
84891;SDS011;75154;42.072;21.394;2024-01-30T14:01:30;6.05;;;4.78;;
84891;SDS011;75154;42.072;21.394;2024-01-30T14:03:56;7.60;;;4.18;;
84891;SDS011;75154;42.072;21.394;2024-01-30T14:06:22;7.45;;;4.85;;
84891;SDS011;75154;42.072;21.394;2024-01-30T14:08:48;7.85;;;4.32;;
84891;SDS011;75154;42.072;21.394;2024-01-30T14:11:14;7.03;;;4.53;;
84891;SDS011;75154;42.072;21.394;2024-01-30T14:13:40;7.25;;;4.35;;
84891;SDS011;75154;42.072;21.394;2024-01-30T14:16:06;6.65;;;4.75;;
84891;SDS011;75154;42.072;21.394;2024-01-30T14:18:32;6.28;;;4.25;;
84891;SDS011;75154;42.072;21.394;2024-01-30T14:20:58;8.35;;;4.60;;
84891;SDS011;75154;42.072;21.394;2024-01-30T14:23:24;5.88;;;4.00;;
84891;SDS011;75154;42.072;21.394;2024-01-30T14:25:50;6.07;;;3.95;;
84891;SDS011;75154;42.072;21.394;2024-01-30T14:28:17;6.03;;;4.18;;
84891;SDS011;75154;42.072;21.394;2024-01-30T14:30:43;5.70;;;4.25;;
84891;SDS011;75154;42.072;21.394;2024-01-30T14:33:09;7.18;;;4.00;;